11°C
Porth, Newquay, Cornwall. UK  Tell A Friend
 Ad **Ad
Updated28/03/2017 03:15 
 


More METAR Reports From


Metar Station     Metar Station     Metar Station     Metar Station     Metar Station
EGBB Birmingham     EGBE Coventry     EGLL London Heathrow     EGKK London Gatwick     EGGP Liverpool
EGGW Luton     EGNX East Midlands     EGLC London City     EGCC Mancester Intl     EGSS Stanstead
Local Metars Here                                
EGBB - Birmingham Airpo, United Kingdom
Updated: 28/03/2017 03:20
Fog, Overcast
Fog, Overcast
 Wind from ESE
Wind: ESE 7 mph , 11 km/h, 6 kts
Temperature: 6°C
Wind Chill: 4°C
Dew Point: 6°C
Humidity: 100%
Barometer: 1019 hPa
Summary: Fog
Clouds: Overcast
Visibility: 0 mile , 1 km
Cloud details: Overcast 30 m
2017/03/28 02:20 EGBB 280220Z 11006KT 0500 R15/P1500 FG OVC001 06/06 Q1019
EGBE - Coventry Airport, United Kingdom
Updated: 27/03/2017 17:50

NOT Current
Haze, Few clouds
Haze, Few clouds
 Wind from E
Wind: E 6 mph , 9 km/h, 5 kts
Temperature: 10°C
Wind Chill: 9°C
Dew Point: 7°C
Humidity: 82%
Barometer: 1020 hPa
Summary: Haze
Clouds: Few Clouds
Visibility: 3 miles , 5 km
Cloud details: Few Clouds 457 m
2017/03/27 16:50 EGBE 271650Z 08005KT 050V110 5000 HZ FEW015 10/07 Q1020
 
EGLL - London/Heathrow, United Kingdom
Updated: 28/03/2017 03:20
Mist, Mostly cloudy
Mist, Mostly cloudy
 Wind from ENE
Wind: ENE 5 mph , 7 km/h, 4 kts
Temperature: 5°C
Wind Chill: 3°C
Dew Point: 5°C
Humidity: 100%
Barometer: 1019 hPa
Summary: Mist
Clouds: Mostly Cloudy
Visibility: 1 mile , 1 km
Cloud details: Mostly Cloudy 91 m
2017/03/28 02:20 EGLL 280220Z AUTO 07004KT 1400 R27L/P1500 BR BKN003 05/05 Q1019 TEMPO 0800 FG BKN002
EGKK - London/Gatwick A, United Kingdom
Updated: 28/03/2017 03:20
Mist, Mostly cloudy
Mist, Mostly cloudy
 Wind from ENE
Wind: ENE 5 mph , 7 km/h, 4 kts
Temperature: 2°C
Wind Chill: 0°C
Dew Point: 2°C
Humidity: 100%
Barometer: 1019 hPa
Summary: Mist
Clouds: Mostly Cloudy
Visibility: 1 mile , 1 km
Cloud details: Mostly Cloudy 61 m
2017/03/28 02:20 EGKK 280220Z 06004KT 1200 R08R/P1500 BR BKN002 02/02 Q1019
 
EGGP - Liverpool Airpor, United Kingdom
Updated: 28/03/2017 03:20
Partly Cloudy
Partly Cloudy
 Wind from ESE
Wind: ESE 8 mph , 13 km/h, 7 kts
Temperature: 5°C
Wind Chill: 2°C
Dew Point: 4°C
Humidity: 93%
Barometer: 1019 hPa
Clouds: Partly Cloudy
Visibility: 5 miles , 8 km
2017/03/28 02:20 EGGP 280220Z 12007KT 8000 NSC 05/04 Q1019
EGGW - Luton Airport, United Kingdom
Updated: 28/03/2017 03:20
Fog
Fog
 Wind from ESE
Wind: ESE 5 mph , 7 km/h, 4 kts
Temperature: 3°C
Wind Chill: 1°C
Dew Point: 3°C
Humidity: 100%
Barometer: 1019 hPa
Summary: Fog
Visibility: 0 mile , 0 km
2017/03/28 02:20 EGGW 280220Z AUTO 11004KT 0050 R08/0200 FG VV/// 03/03 Q1019
 
EGNX - East Midlands, United Kingdom
Updated: 28/03/2017 03:20
Fog, Mostly cloudy
Fog, Mostly cloudy
 Wind from ESE
Wind: ESE 6 mph , 9 km/h, 5 kts
Temperature: 5°C
Wind Chill: 3°C
Dew Point: 5°C
Humidity: 100%
Barometer: 1020 hPa
Summary: Fog
Clouds: Mostly Cloudy
Visibility: 0 mile , 1 km
Cloud details: Mostly Cloudy 30 m
2017/03/28 02:20 EGNX 280220Z 12005KT 0700 R27/1100 FG BKN001 05/05 Q1020
EGLC - London City Airp, United Kingdom
Updated: 28/03/2017 03:20
Fog
Fog
 Wind from E
Wind: E 8 mph , 13 km/h, 7 kts
Temperature: 6°C
Wind Chill: 3°C
Dew Point: 6°C
Humidity: 100%
Barometer: 1020 hPa
Summary: Fog
Visibility: 0 mile , 0 km
2017/03/28 02:20 EGLC 280220Z AUTO 10007KT 0450 FG VV/// 06/06 Q1020
 
EGCC - Manchester Intl, United Kingdom
Updated: 28/03/2017 03:20
Haze, Mostly cloudy
Haze, Mostly cloudy
 Wind from varies
Wind: varies 1 mph , 2 km/h, 1 kts
Temperature: 3°C
Dew Point: 2°C
Humidity: 93%
Barometer: 1019 hPa
Summary: Haze
Clouds: Mostly Cloudy
Visibility: 3 miles , 4 km
Cloud details: Mostly Cloudy 1158 m
2017/03/28 02:20 EGCC 280220Z AUTO VRB01KT 4200 HZ BKN038 03/02 Q1019 TEMPO 5000
EGSS - Stansted Airport, United Kingdom
Updated: 28/03/2017 03:20
Rain, Fog
Rain, Fog
 Wind from ESE
Wind: ESE 3 mph , 6 km/h, 3 kts
Temperature: 4°C
Dew Point: 4°C
Humidity: 100%
Barometer: 1020 hPa
Summary: Rain, Fog
Visibility: 0 mile , 0 km
2017/03/28 02:20 EGSS 280220Z AUTO 12003KT 0100 R04/0250 RA FG VV/// 04/04 Q1020

Metar, brief description

METAR is a format for reporting weather information. A METAR weather report is predominantly used by pilots in fulfillment of a part of a pre-flight weather briefing, and by meteorologists, who use aggregated METAR information to assist in weather forecasting.

Raw METAR is the most popular format in the world for the transmission of weather data. Each METAR report contains essential information about the current weather conditions: Temperature, Dew Point, Barometric Pressure, Wind Speed and Direction, Visibility, Clouds Cover, Current Weather (Rain, Thunderstorms, Hail, Snow and so on...), here is an example of a raw metar report for EGHQ (Newquay airport).
METAR not available